createdAt,value
2018-08-20T00:01:30.835Z,8.60
2018-08-20T00:04:05.564Z,8.10
2018-08-20T00:06:46.103Z,9.23
2018-08-20T00:09:14.812Z,8.67
2018-08-20T00:11:43.481Z,7.47
2018-08-20T00:14:12.061Z,7.80
2018-08-20T00:16:40.643Z,8.33
2018-08-20T00:19:13.505Z,8.53
2018-08-20T00:21:43.533Z,8.50
2018-08-20T00:24:12.192Z,7.80
2018-08-20T00:26:40.795Z,7.33
2018-08-20T00:29:09.868Z,7.63
2018-08-20T00:31:38.496Z,7.37
2018-08-20T00:34:07.158Z,7.50
2018-08-20T00:36:35.700Z,7.60
2018-08-20T00:39:06.069Z,7.33
2018-08-20T00:41:34.693Z,7.53
2018-08-20T00:44:04.841Z,7.97
2018-08-20T00:46:33.424Z,7.37
2018-08-20T00:49:01.987Z,7.60
2018-08-20T00:51:30.955Z,7.77
2018-08-20T00:53:59.523Z,8.57
2018-08-20T00:56:28.203Z,7.73
2018-08-20T00:58:56.743Z,9.90
2018-08-20T01:01:25.306Z,8.23
2018-08-20T01:04:00.314Z,8.00
2018-08-20T01:06:29.180Z,8.67
2018-08-20T01:08:57.792Z,7.90
2018-08-20T01:11:26.365Z,7.27
2018-08-20T01:13:54.935Z,7.57
2018-08-20T01:16:23.508Z,8.00
2018-08-20T01:18:52.296Z,7.33
2018-08-20T01:21:20.920Z,7.33
2018-08-20T01:23:49.455Z,8.10
2018-08-20T01:26:18.048Z,7.40
2018-08-20T01:28:46.596Z,8.80
2018-08-20T01:31:15.186Z,7.67
2018-08-20T01:33:43.810Z,8.00
2018-08-20T01:36:14.466Z,7.57
2018-08-20T01:38:43.910Z,8.57
2018-08-20T01:41:12.538Z,7.63
2018-08-20T01:43:41.188Z,8.70
2018-08-20T01:46:09.877Z,8.23
2018-08-20T01:48:38.436Z,7.63
2018-08-20T01:51:07.041Z,8.07
2018-08-20T01:53:35.607Z,8.27
2018-08-20T01:56:04.163Z,8.30
2018-08-20T01:58:32.751Z,7.23
2018-08-20T02:03:51.804Z,8.17
2018-08-20T02:06:21.902Z,8.70
2018-08-20T02:08:50.488Z,8.73
2018-08-20T02:11:19.202Z,8.50
2018-08-20T02:13:47.807Z,7.47
2018-08-20T02:16:17.007Z,8.27
2018-08-20T02:18:45.601Z,7.60
2018-08-20T02:21:14.619Z,8.37
2018-08-20T02:23:43.224Z,7.23
2018-08-20T02:26:11.803Z,7.20
2018-08-20T02:28:40.375Z,7.23
2018-08-20T02:31:08.933Z,7.57
2018-08-20T02:33:37.556Z,8.10
2018-08-20T02:36:06.146Z,7.60
2018-08-20T02:38:34.711Z,7.70
2018-08-20T02:41:05.741Z,8.13
2018-08-20T02:43:34.324Z,7.07
2018-08-20T02:46:02.992Z,7.57
2018-08-20T02:48:31.628Z,7.20
2018-08-20T02:51:00.181Z,9.67
2018-08-20T02:53:28.764Z,7.30
2018-08-20T02:55:57.371Z,7.80
2018-08-20T02:58:25.920Z,7.20
2018-08-20T03:00:54.643Z,8.50
2018-08-20T03:03:23.238Z,8.27
2018-08-20T03:05:51.795Z,8.50
2018-08-20T03:08:20.402Z,8.23
2018-08-20T03:10:49.531Z,9.40
2018-08-20T03:13:18.948Z,7.97
2018-08-20T03:15:47.744Z,8.63
2018-08-20T03:18:16.313Z,8.07
2018-08-20T03:20:44.847Z,8.83
2018-08-20T03:23:13.468Z,8.30
2018-08-20T03:25:42.011Z,8.03
2018-08-20T03:28:11.178Z,7.80
2018-08-20T03:30:39.845Z,8.03
2018-08-20T03:33:08.502Z,7.83
2018-08-20T03:35:37.067Z,7.47
2018-08-20T03:38:05.668Z,7.07
2018-08-20T03:40:34.224Z,7.80
2018-08-20T03:43:02.856Z,7.83
2018-08-20T03:45:31.454Z,8.40
2018-08-20T03:48:00.080Z,8.57
2018-08-20T03:50:28.808Z,8.03
2018-08-20T03:52:57.351Z,8.40
2018-08-20T03:55:25.873Z,8.93
2018-08-20T03:57:54.423Z,8.23
2018-08-20T04:00:25.087Z,8.50
2018-08-20T04:02:54.839Z,8.70
2018-08-20T04:05:23.404Z,9.57
2018-08-20T04:07:51.967Z,9.63
2018-08-20T04:10:20.532Z,8.27
2018-08-20T04:15:40.039Z,8.17
2018-08-20T04:18:08.852Z,8.70
2018-08-20T04:20:37.415Z,8.90
2018-08-20T04:23:06.179Z,9.17
2018-08-20T04:25:35.086Z,10.27
2018-08-20T04:28:03.716Z,9.70
2018-08-20T04:30:32.362Z,9.47
2018-08-20T04:33:00.912Z,9.90
2018-08-20T04:35:29.592Z,10.30
2018-08-20T04:37:58.140Z,8.40
2018-08-20T04:40:26.837Z,10.00
2018-08-20T04:45:45.899Z,8.97
2018-08-20T04:48:14.441Z,8.33
2018-08-20T04:50:43.053Z,8.90
2018-08-20T04:53:11.573Z,8.70
2018-08-20T04:55:40.149Z,9.20
2018-08-20T04:58:08.734Z,9.30
2018-08-20T05:00:37.341Z,10.07
2018-08-20T05:03:06.457Z,9.20
2018-08-20T05:05:35.063Z,9.07
2018-08-20T05:08:03.602Z,8.60
2018-08-20T05:10:32.155Z,7.93
2018-08-20T05:13:00.713Z,7.80
2018-08-20T05:15:29.308Z,7.60
2018-08-20T05:17:57.884Z,7.67
2018-08-20T05:20:26.415Z,7.67
2018-08-20T05:22:55.106Z,8.47
2018-08-20T05:25:23.662Z,8.00
2018-08-20T05:27:52.205Z,7.13
2018-08-20T05:30:20.793Z,7.90
2018-08-20T05:32:49.359Z,8.83
2018-08-20T05:35:18.236Z,7.60
2018-08-20T05:37:46.801Z,7.50
2018-08-20T05:40:15.345Z,8.17
2018-08-20T05:42:43.929Z,7.07
2018-08-20T05:45:12.941Z,7.60
2018-08-20T05:47:41.567Z,7.63
2018-08-20T05:50:10.966Z,7.80
2018-08-20T05:52:39.574Z,8.60
2018-08-20T05:55:08.196Z,7.93
2018-08-20T05:57:36.813Z,8.10
2018-08-20T06:00:09.774Z,9.37
2018-08-20T06:02:38.344Z,11.70
2018-08-20T06:05:06.960Z,10.47
2018-08-20T06:07:35.508Z,9.00
2018-08-20T06:10:04.148Z,8.77
2018-08-20T06:12:32.842Z,8.83
2018-08-20T06:15:01.504Z,9.17
2018-08-20T06:17:30.077Z,8.23
2018-08-20T06:19:58.662Z,7.67
2018-08-20T06:22:27.282Z,7.37
2018-08-20T06:24:55.903Z,7.27
2018-08-20T06:27:24.435Z,7.50
2018-08-20T06:29:53.001Z,7.20
2018-08-20T06:32:21.608Z,8.37
2018-08-20T06:34:51.078Z,7.40
2018-08-20T06:37:19.664Z,7.70
2018-08-20T06:39:48.289Z,8.20
2018-08-20T06:42:16.853Z,8.50
2018-08-20T06:44:45.451Z,8.50
2018-08-20T06:47:15.250Z,8.50
2018-08-20T06:49:43.836Z,7.90
2018-08-20T06:52:12.429Z,7.83
2018-08-20T06:54:41.008Z,8.27
2018-08-20T06:57:10.204Z,8.30
2018-08-20T06:59:38.747Z,7.37
2018-08-20T07:02:07.343Z,8.10
2018-08-20T07:04:35.939Z,8.07
2018-08-20T07:07:04.499Z,8.47
2018-08-20T07:09:33.140Z,7.93
2018-08-20T07:12:01.714Z,8.30
2018-08-20T07:14:30.427Z,7.17
2018-08-20T07:16:59.041Z,7.30
2018-08-20T07:22:30.878Z,7.33
2018-08-20T07:24:59.432Z,8.27
2018-08-20T07:27:27.955Z,7.20
2018-08-20T07:29:56.563Z,8.07
2018-08-20T07:32:25.275Z,8.00
2018-08-20T07:34:53.840Z,8.10
2018-08-20T07:37:22.398Z,8.00
2018-08-20T07:39:50.999Z,7.13
2018-08-20T07:42:19.580Z,6.77
2018-08-20T07:44:48.136Z,8.37
2018-08-20T07:47:16.709Z,7.20
2018-08-20T07:49:45.305Z,7.50
2018-08-20T07:52:14.766Z,6.90
2018-08-20T07:54:43.322Z,7.13
2018-08-20T07:57:13.163Z,7.33
2018-08-20T07:59:41.772Z,8.23
2018-08-20T08:02:10.366Z,7.77
2018-08-20T08:04:38.922Z,7.90
2018-08-20T08:07:07.507Z,7.93
2018-08-20T08:09:36.110Z,8.30
2018-08-20T08:12:04.717Z,7.93
2018-08-20T08:14:33.335Z,7.90
2018-08-20T08:17:01.938Z,7.07
2018-08-20T08:19:30.615Z,7.40
2018-08-20T08:21:59.265Z,7.10
2018-08-20T08:24:27.956Z,6.37
2018-08-20T08:26:56.785Z,7.83
2018-08-20T08:29:25.482Z,8.23
2018-08-20T08:31:54.271Z,7.40
2018-08-20T08:34:23.057Z,7.30
2018-08-20T08:36:51.640Z,8.07
2018-08-20T08:39:20.388Z,9.00
2018-08-20T08:41:49.296Z,7.90
2018-08-20T08:44:18.185Z,8.27
2018-08-20T08:46:46.812Z,7.70
2018-08-20T08:49:15.601Z,8.40
2018-08-20T08:51:44.217Z,8.03
2018-08-20T08:54:12.804Z,7.83
2018-08-20T08:56:41.400Z,7.90
2018-08-20T08:59:10.006Z,7.50
2018-08-20T09:01:38.596Z,7.30
2018-08-20T09:04:08.051Z,7.27
2018-08-20T09:06:36.622Z,8.27
2018-08-20T09:09:07.070Z,6.90
2018-08-20T09:11:36.085Z,7.60
2018-08-20T09:14:06.051Z,7.50
2018-08-20T09:16:34.689Z,6.63
2018-08-20T09:19:03.400Z,6.87
2018-08-20T09:21:31.965Z,6.83
2018-08-20T09:24:00.668Z,7.60
2018-08-20T09:26:29.427Z,7.20
2018-08-20T09:28:59.150Z,6.87
2018-08-20T09:31:27.872Z,7.23
2018-08-20T09:33:56.501Z,6.80
2018-08-20T09:36:25.145Z,7.30
2018-08-20T09:38:53.748Z,7.10
2018-08-20T09:41:22.416Z,7.60
2018-08-20T09:43:51.270Z,7.50
2018-08-20T09:46:19.727Z,7.57
2018-08-20T09:48:48.273Z,7.43
2018-08-20T09:51:17.005Z,6.50
2018-08-20T09:53:45.609Z,7.33
2018-08-20T09:56:14.218Z,6.70
2018-08-20T09:58:42.808Z,7.23
2018-08-20T10:01:11.391Z,6.83
2018-08-20T10:03:45.732Z,8.20
2018-08-20T10:06:15.440Z,9.03
2018-08-20T10:08:44.458Z,10.00
2018-08-20T10:11:13.954Z,7.50
2018-08-20T10:13:42.579Z,6.47
2018-08-20T10:16:11.324Z,7.70
2018-08-20T10:18:40.714Z,7.10
2018-08-20T10:21:09.348Z,6.70
2018-08-20T10:23:37.964Z,6.00
2018-08-20T10:26:07.295Z,6.47
2018-08-20T10:28:35.938Z,6.87
2018-08-20T10:31:04.589Z,8.10
2018-08-20T10:33:33.188Z,8.03
2018-08-20T10:36:03.251Z,7.60
2018-08-20T10:38:31.810Z,8.20
2018-08-20T10:41:00.364Z,7.60
2018-08-20T10:43:28.957Z,8.57
2018-08-20T10:46:02.659Z,8.13
2018-08-20T10:48:31.290Z,8.50
2018-08-20T10:50:59.903Z,9.50
2018-08-20T10:53:28.517Z,8.20
2018-08-20T10:55:57.156Z,8.03
2018-08-20T10:58:25.792Z,7.67
2018-08-20T11:00:54.343Z,7.83
2018-08-20T11:03:22.937Z,6.40
2018-08-20T11:05:51.595Z,8.20
2018-08-20T11:08:20.156Z,7.27
2018-08-20T11:10:48.794Z,7.77
2018-08-20T11:13:17.375Z,7.70
2018-08-20T11:15:45.977Z,7.60
2018-08-20T11:18:14.630Z,8.00
2018-08-20T11:20:43.174Z,8.37
2018-08-20T11:23:11.790Z,8.70
2018-08-20T11:25:40.401Z,9.60
2018-08-20T11:28:08.961Z,8.73
2018-08-20T11:30:37.524Z,8.00
2018-08-20T11:33:06.201Z,9.23
2018-08-20T11:35:34.811Z,7.30
2018-08-20T11:38:03.476Z,7.37
2018-08-20T11:40:32.270Z,8.10
2018-08-20T11:43:00.889Z,8.43
2018-08-20T11:45:29.478Z,7.20
2018-08-20T11:47:58.377Z,7.80
2018-08-20T11:50:27.335Z,7.20
2018-08-20T11:52:55.980Z,6.73
2018-08-20T11:55:24.668Z,7.53
2018-08-20T11:57:53.300Z,6.83
2018-08-20T12:00:21.883Z,6.87
2018-08-20T12:02:51.080Z,6.53
2018-08-20T12:05:19.696Z,6.80
2018-08-20T12:07:48.675Z,6.50
2018-08-20T12:10:18.111Z,5.87
2018-08-20T12:29:51.662Z,7.73
2018-08-20T12:32:20.200Z,8.27
2018-08-20T12:34:48.756Z,6.43
2018-08-20T12:37:17.326Z,6.20
2018-08-20T12:39:45.879Z,7.03
2018-08-20T12:42:14.553Z,6.50
2018-08-20T12:44:43.123Z,6.17
2018-08-20T12:47:12.069Z,6.83
2018-08-20T12:49:40.622Z,6.10
2018-08-20T12:52:09.509Z,6.13
2018-08-20T12:54:38.084Z,6.73
2018-08-20T12:57:06.699Z,6.83
2018-08-20T12:59:35.444Z,5.97
2018-08-20T13:02:04.047Z,5.30
2018-08-20T13:04:32.650Z,6.20
2018-08-20T13:07:01.295Z,5.80
2018-08-20T13:09:29.895Z,5.53
2018-08-20T13:11:58.505Z,4.43
2018-08-20T13:14:27.060Z,4.60
2018-08-20T13:16:55.648Z,4.70
2018-08-20T13:19:24.234Z,4.50
2018-08-20T13:21:53.039Z,5.10
2018-08-20T13:24:21.618Z,5.00
2018-08-20T13:26:50.229Z,5.10
2018-08-20T13:29:18.803Z,4.07
2018-08-20T13:31:47.378Z,5.17
2018-08-20T13:34:16.803Z,4.50
2018-08-20T13:36:45.369Z,4.90
2018-08-20T13:39:16.012Z,4.03
2018-08-20T13:41:44.564Z,5.27
2018-08-20T13:44:13.201Z,5.07
2018-08-20T13:46:41.774Z,4.60
2018-08-20T13:49:10.463Z,4.60
2018-08-20T13:51:39.116Z,3.77
2018-08-20T13:54:07.709Z,3.70
2018-08-20T13:56:36.352Z,4.40
2018-08-20T13:59:05.263Z,3.80
2018-08-20T14:01:33.847Z,4.23
2018-08-20T14:04:02.396Z,3.47
2018-08-20T14:06:30.950Z,3.50
2018-08-20T14:08:59.569Z,3.33
2018-08-20T14:11:28.161Z,4.47
2018-08-20T14:13:56.750Z,4.40
2018-08-20T14:16:25.351Z,4.63
2018-08-20T14:18:54.309Z,4.50
2018-08-20T14:21:23.024Z,5.40
2018-08-20T14:23:51.629Z,5.23
2018-08-20T14:26:20.189Z,6.30
2018-08-20T14:28:48.768Z,5.70
2018-08-20T14:31:17.372Z,6.80
2018-08-20T14:33:45.972Z,7.13
2018-08-20T14:36:14.683Z,8.47
2018-08-20T14:38:43.311Z,7.80
2018-08-20T14:41:12.183Z,7.77
2018-08-20T14:43:40.780Z,6.57
2018-08-20T14:46:14.580Z,6.77
2018-08-20T14:48:43.324Z,6.20
2018-08-20T14:51:12.131Z,5.90
2018-08-20T14:53:40.669Z,6.30
2018-08-20T14:56:09.240Z,6.60
2018-08-20T14:58:37.849Z,7.60
2018-08-20T15:01:06.696Z,5.97
2018-08-20T15:03:35.276Z,6.67
2018-08-20T15:06:03.800Z,7.37
2018-08-20T15:08:32.593Z,7.07
2018-08-20T15:11:01.180Z,7.57
2018-08-20T15:13:29.733Z,8.10
2018-08-20T15:15:58.343Z,6.63
2018-08-20T15:19:11.253Z,7.10
2018-08-20T15:21:39.815Z,7.70
2018-08-20T15:24:08.580Z,6.60
2018-08-20T15:26:37.281Z,6.80
2018-08-20T15:29:06.102Z,6.70
2018-08-20T15:31:34.656Z,5.93
2018-08-20T15:34:03.273Z,5.70
2018-08-20T15:36:31.865Z,6.13
2018-08-20T15:39:00.858Z,5.93
2018-08-20T15:41:29.501Z,5.70
2018-08-20T15:43:58.107Z,6.47
2018-08-20T15:46:26.700Z,6.00
2018-08-20T15:48:55.309Z,5.80
2018-08-20T15:51:24.733Z,7.47
2018-08-20T15:53:53.347Z,6.87
2018-08-20T15:56:21.974Z,7.60
2018-08-20T15:58:50.522Z,7.67
2018-08-20T16:01:19.086Z,7.03
2018-08-20T16:03:47.718Z,7.00
2018-08-20T16:06:16.272Z,6.30
2018-08-20T16:08:44.837Z,5.97
2018-08-20T16:11:13.662Z,5.70
2018-08-20T16:13:42.432Z,5.80
2018-08-20T16:16:11.565Z,5.57
2018-08-20T16:21:42.465Z,5.50
2018-08-20T16:24:11.241Z,5.43
2018-08-20T16:26:39.804Z,6.07
2018-08-20T16:29:08.410Z,7.17
2018-08-20T16:31:37.281Z,5.80
2018-08-20T16:34:05.960Z,6.23
2018-08-20T16:36:34.830Z,9.00
2018-08-20T16:39:04.805Z,6.20
2018-08-20T16:41:33.399Z,7.07
2018-08-20T16:44:02.008Z,6.63
2018-08-20T16:46:30.627Z,6.33
2018-08-20T16:48:59.382Z,6.17
2018-08-20T16:51:28.131Z,6.57
2018-08-20T16:53:56.809Z,6.37
2018-08-20T16:56:25.462Z,5.90
2018-08-20T16:58:54.199Z,6.33
2018-08-20T17:01:22.799Z,5.53
2018-08-20T17:03:51.384Z,7.07
2018-08-20T17:06:20.002Z,6.30
2018-08-20T17:08:48.588Z,6.17
2018-08-20T17:11:17.185Z,5.70
2018-08-20T17:13:45.859Z,6.80
2018-08-20T17:16:22.110Z,6.63
2018-08-20T17:18:50.705Z,6.60
2018-08-20T17:21:19.479Z,6.53
2018-08-20T17:23:47.992Z,6.83
2018-08-20T17:26:16.680Z,6.67
2018-08-20T17:28:45.233Z,5.70
2018-08-20T17:31:13.959Z,6.77
2018-08-20T17:33:42.489Z,6.97
2018-08-20T17:36:11.057Z,6.83
2018-08-20T17:38:39.743Z,7.70
2018-08-20T17:41:09.411Z,6.33
2018-08-20T17:43:38.026Z,8.30
2018-08-20T17:46:06.676Z,8.87
2018-08-20T17:48:35.225Z,8.63
2018-08-20T17:51:03.915Z,10.87
2018-08-20T17:53:43.699Z,9.20
2018-08-20T17:56:12.300Z,8.70
2018-08-20T17:58:40.861Z,9.93
2018-08-20T18:01:09.495Z,9.87
2018-08-20T18:03:38.672Z,10.47
2018-08-20T18:06:09.361Z,8.33
2018-08-20T18:08:38.226Z,6.03
2018-08-20T18:11:08.053Z,6.73
2018-08-20T18:13:45.431Z,7.63
2018-08-20T18:16:15.379Z,7.47
2018-08-20T18:18:52.567Z,7.20
2018-08-20T18:21:21.168Z,7.47
2018-08-20T18:23:49.845Z,6.20
2018-08-20T18:26:18.439Z,7.70
2018-08-20T18:28:51.919Z,7.07
2018-08-20T18:31:23.200Z,7.83
2018-08-20T18:33:51.828Z,7.77
2018-08-20T18:36:21.662Z,7.70
2018-08-20T18:38:53.927Z,7.57
2018-08-20T18:42:00.221Z,7.20
2018-08-20T18:44:28.843Z,8.43
2018-08-20T18:46:57.420Z,7.23
2018-08-20T18:49:26.063Z,8.37
2018-08-20T18:52:17.330Z,7.90
2018-08-20T18:54:50.152Z,7.10
2018-08-20T18:57:21.361Z,7.50
2018-08-20T18:59:50.098Z,7.33
2018-08-20T19:02:38.678Z,7.97
2018-08-20T19:05:10.261Z,7.57
2018-08-20T19:07:39.106Z,8.97
2018-08-20T19:10:16.503Z,9.20
2018-08-20T19:12:45.403Z,9.83
2018-08-20T19:15:28.081Z,10.67
2018-08-20T19:17:56.683Z,11.37
2018-08-20T19:20:25.316Z,11.30
2018-08-20T19:22:53.876Z,11.07
2018-08-20T19:25:22.581Z,10.40
2018-08-20T19:27:51.153Z,9.50
2018-08-20T19:30:22.975Z,10.03
2018-08-20T19:32:51.528Z,10.07
2018-08-20T19:35:20.129Z,9.00
2018-08-20T19:37:49.186Z,8.67
2018-08-20T19:40:17.932Z,8.80
2018-08-20T19:42:46.623Z,8.47
2018-08-20T19:45:15.232Z,9.17
2018-08-20T19:47:44.052Z,7.90
2018-08-20T19:50:13.244Z,9.03
2018-08-20T19:52:42.216Z,8.43
2018-08-20T19:55:13.008Z,9.37
2018-08-20T19:57:41.713Z,8.60
2018-08-20T20:00:12.549Z,9.27
2018-08-20T20:02:42.884Z,9.20
2018-08-20T20:05:14.963Z,9.57
2018-08-20T20:07:56.416Z,10.00
2018-08-20T20:10:25.026Z,9.50
2018-08-20T20:12:55.643Z,8.93
2018-08-20T20:15:25.061Z,10.10
2018-08-20T20:17:54.852Z,8.83
2018-08-20T20:20:23.470Z,9.40
2018-08-20T20:22:52.075Z,9.27
2018-08-20T20:25:21.122Z,9.60
2018-08-20T20:27:49.685Z,9.17
2018-08-20T20:30:18.277Z,8.80
2018-08-20T20:32:46.837Z,8.33
2018-08-20T20:35:15.574Z,9.63
2018-08-20T20:37:44.168Z,10.10
2018-08-20T20:40:12.766Z,10.20
2018-08-20T20:42:41.347Z,10.50
2018-08-20T20:45:10.051Z,11.30
2018-08-20T20:47:38.716Z,11.60
2018-08-20T20:50:07.472Z,11.60
2018-08-20T20:52:36.109Z,10.03
2018-08-20T20:55:04.952Z,9.20
2018-08-20T20:57:33.525Z,9.10
2018-08-20T21:00:02.150Z,9.03
2018-08-20T21:02:30.867Z,8.83
2018-08-20T21:05:04.714Z,8.00
2018-08-20T21:07:33.936Z,8.00
2018-08-20T21:10:02.498Z,8.87
2018-08-20T21:12:31.844Z,8.33
2018-08-20T21:15:00.436Z,9.23
2018-08-20T21:17:30.084Z,9.17
2018-08-20T21:19:58.685Z,9.50
2018-08-20T21:22:27.287Z,10.10
2018-08-20T21:24:56.005Z,8.20
2018-08-20T21:27:26.779Z,9.57
2018-08-20T21:29:58.769Z,8.47
2018-08-20T21:32:27.396Z,8.40
2018-08-20T21:34:56.014Z,8.63
2018-08-20T21:37:24.677Z,8.43
2018-08-20T21:39:54.025Z,8.30
2018-08-20T21:42:32.420Z,9.53
2018-08-20T21:45:00.971Z,8.20
2018-08-20T21:47:31.070Z,9.10
2018-08-20T21:49:59.759Z,9.10
2018-08-20T21:52:28.453Z,8.80
2018-08-20T21:54:57.931Z,10.23
2018-08-20T21:57:26.524Z,9.70
2018-08-20T22:00:11.790Z,9.63
2018-08-20T22:02:40.491Z,8.33
2018-08-20T22:05:09.127Z,9.50
2018-08-20T22:07:37.900Z,10.87
2018-08-20T22:10:06.515Z,10.00
2018-08-20T22:12:35.123Z,10.13
2018-08-20T22:15:04.103Z,8.50
2018-08-20T22:20:47.481Z,9.57
2018-08-20T22:23:25.273Z,9.30
2018-08-20T22:25:47.768Z,9.87
2018-08-20T22:28:16.323Z,8.87
2018-08-20T22:30:49.300Z,9.80
2018-08-20T22:33:18.561Z,7.87
2018-08-20T22:35:47.231Z,9.00
2018-08-20T22:38:15.874Z,9.47
2018-08-20T22:40:44.672Z,9.43
2018-08-20T22:43:13.330Z,8.73
2018-08-20T22:45:42.013Z,9.17
2018-08-20T22:48:10.591Z,8.70
2018-08-20T22:50:41.246Z,8.83
2018-08-20T22:53:09.942Z,9.13
2018-08-20T22:55:44.313Z,8.57
2018-08-20T22:58:12.922Z,8.43
2018-08-20T23:00:41.656Z,9.80
2018-08-20T23:03:10.237Z,9.73
2018-08-20T23:05:38.835Z,10.50
2018-08-20T23:08:12.655Z,10.43
2018-08-20T23:10:43.033Z,10.80
2018-08-20T23:13:11.661Z,9.13
2018-08-20T23:15:40.369Z,8.90
2018-08-20T23:18:09.031Z,9.70
2018-08-20T23:20:37.739Z,8.73
2018-08-20T23:23:06.491Z,8.50
2018-08-20T23:25:35.074Z,8.90
2018-08-20T23:28:03.673Z,9.57
2018-08-20T23:30:32.213Z,8.50
2018-08-20T23:33:00.759Z,7.83
2018-08-20T23:35:29.394Z,8.57
2018-08-20T23:37:57.979Z,8.70
2018-08-20T23:40:26.564Z,9.73
2018-08-20T23:42:55.256Z,8.00
2018-08-20T23:45:23.891Z,9.67
2018-08-20T23:47:52.454Z,9.10
2018-08-20T23:50:21.061Z,10.60
2018-08-20T23:52:49.611Z,9.70
2018-08-20T23:55:18.323Z,9.50
2018-08-20T23:57:46.877Z,8.67
